sensor_id;sensor_type;location;lat;lon;timestamp;pressure;altitude;pressure_sealevel;temperature;humidity
79004;BME280;68369;51.050;17.018;2023-07-16T00:04:09;99609.89;;;21.59;62.50
79004;BME280;68369;51.050;17.018;2023-07-16T00:06:55;99607.72;;;21.56;62.54
79004;BME280;68369;51.050;17.018;2023-07-16T00:09:41;99610.58;;;21.52;62.75
79004;BME280;68369;51.050;17.018;2023-07-16T00:15:41;99597.69;;;21.45;62.98
79004;BME280;68369;51.050;17.018;2023-07-16T00:18:26;99597.94;;;21.46;63.17
79004;BME280;68369;51.050;17.018;2023-07-16T00:24:04;99604.33;;;21.45;63.32
79004;BME280;68369;51.050;17.018;2023-07-16T00:26:50;99604.58;;;21.42;63.44
79004;BME280;68369;51.050;17.018;2023-07-16T00:29:36;99603.98;;;21.39;63.58
79004;BME280;68369;51.050;17.018;2023-07-16T00:42:00;99606.00;;;21.33;63.93
79004;BME280;68369;51.050;17.018;2023-07-16T00:44:46;99599.77;;;21.33;64.04
79004;BME280;68369;51.050;17.018;2023-07-16T00:47:32;99581.86;;;21.23;64.16
79004;BME280;68369;51.050;17.018;2023-07-16T00:50:19;99596.67;;;21.28;64.23
79004;BME280;68369;51.050;17.018;2023-07-16T00:53:08;99595.94;;;21.25;64.32
79004;BME280;68369;51.050;17.018;2023-07-16T00:55:54;99597.34;;;21.22;64.48
79004;BME280;68369;51.050;17.018;2023-07-16T00:58:39;99599.44;;;21.18;64.60
79004;BME280;68369;51.050;17.018;2023-07-16T01:01:25;99598.73;;;21.18;64.81
79004;BME280;68369;51.050;17.018;2023-07-16T01:04:11;99601.70;;;21.21;64.78
79004;BME280;68369;51.050;17.018;2023-07-16T01:16:42;99576.73;;;21.12;65.31
79004;BME280;68369;51.050;17.018;2023-07-16T01:22:32;99581.50;;;21.07;65.39
79004;BME280;68369;51.050;17.018;2023-07-16T01:25:28;99572.30;;;21.08;65.45
79004;BME280;68369;51.050;17.018;2023-07-16T01:37:32;99568.97;;;21.02;65.89
79004;BME280;68369;51.050;17.018;2023-07-16T01:40:18;99561.00;;;21.03;65.88
79004;BME280;68369;51.050;17.018;2023-07-16T01:43:04;99559.45;;;21.05;66.12
79004;BME280;68369;51.050;17.018;2023-07-16T01:45:49;99569.20;;;21.09;66.04
79004;BME280;68369;51.050;17.018;2023-07-16T02:01:13;99552.25;;;21.02;66.60
79004;BME280;68369;51.050;17.018;2023-07-16T02:09:22;99552.77;;;21.07;66.74
79004;BME280;68369;51.050;17.018;2023-07-16T02:13:15;99554.02;;;21.06;66.81
79004;BME280;68369;51.050;17.018;2023-07-16T02:17:00;99554.20;;;21.04;66.94
79004;BME280;68369;51.050;17.018;2023-07-16T02:20:32;99552.48;;;21.03;66.96
79004;BME280;68369;51.050;17.018;2023-07-16T02:24:26;99563.41;;;21.10;66.94
79004;BME280;68369;51.050;17.018;2023-07-16T02:34:01;99586.01;;;21.05;66.86
79004;BME280;68369;51.050;17.018;2023-07-16T02:50:21;99619.86;;;20.97;67.24
79004;BME280;68369;51.050;17.018;2023-07-16T02:53:07;99609.04;;;20.93;67.13
79004;BME280;68369;51.050;17.018;2023-07-16T02:59:15;99600.49;;;20.93;67.42
79004;BME280;68369;51.050;17.018;2023-07-16T03:02:01;99615.02;;;20.94;67.44
79004;BME280;68369;51.050;17.018;2023-07-16T03:30:51;99653.79;;;20.88;67.83
79004;BME280;68369;51.050;17.018;2023-07-16T03:37:10;99725.00;;;20.94;68.05
79004;BME280;68369;51.050;17.018;2023-07-16T03:45:49;99834.27;;;21.05;68.20
79004;BME280;68369;51.050;17.018;2023-07-16T03:48:35;99795.60;;;21.13;68.09
79004;BME280;68369;51.050;17.018;2023-07-16T03:51:20;99784.67;;;21.19;67.88
79004;BME280;68369;51.050;17.018;2023-07-16T04:11:03;99823.71;;;21.58;68.16
79004;BME280;68369;51.050;17.018;2023-07-16T04:13:49;99816.73;;;21.66;68.03
79004;BME280;68369;51.050;17.018;2023-07-16T04:19:27;99835.64;;;21.81;67.94
79004;BME280;68369;51.050;17.018;2023-07-16T04:22:12;99838.85;;;21.89;67.73
79004;BME280;68369;51.050;17.018;2023-07-16T04:24:57;99846.98;;;22.00;67.33
79004;BME280;68369;51.050;17.018;2023-07-16T04:27:43;99854.39;;;22.13;66.88
79004;BME280;68369;51.050;17.018;2023-07-16T04:33:51;99879.35;;;22.37;65.91
79004;BME280;68369;51.050;17.018;2023-07-16T04:36:38;99884.19;;;22.46;65.60
79004;BME280;68369;51.050;17.018;2023-07-16T04:39:23;99884.46;;;22.54;65.40
79004;BME280;68369;51.050;17.018;2023-07-16T04:42:08;99883.71;;;22.59;65.23
79004;BME280;68369;51.050;17.018;2023-07-16T04:44:54;99886.28;;;22.66;64.94
79004;BME280;68369;51.050;17.018;2023-07-16T04:47:39;99890.64;;;22.74;64.86
79004;BME280;68369;51.050;17.018;2023-07-16T04:50:24;99889.41;;;22.84;64.60
79004;BME280;68369;51.050;17.018;2023-07-16T05:01:53;99924.04;;;23.13;63.86
79004;BME280;68369;51.050;17.018;2023-07-16T05:07:41;99920.65;;;23.22;63.06
79004;BME280;68369;51.050;17.018;2023-07-16T05:10:27;99922.30;;;23.27;62.91
79004;BME280;68369;51.050;17.018;2023-07-16T05:13:12;99928.38;;;23.33;62.57
79004;BME280;68369;51.050;17.018;2023-07-16T05:15:57;99923.95;;;23.39;62.29
79004;BME280;68369;51.050;17.018;2023-07-16T05:18:43;99928.86;;;23.52;61.86
79004;BME280;68369;51.050;17.018;2023-07-16T05:21:29;99933.67;;;23.60;61.75
79004;BME280;68369;51.050;17.018;2023-07-16T05:33:51;99958.95;;;24.15;59.77
79004;BME280;68369;51.050;17.018;2023-07-16T05:36:37;99956.01;;;24.26;59.00
79004;BME280;68369;51.050;17.018;2023-07-16T05:39:23;99947.83;;;24.38;58.81
79004;BME280;68369;51.050;17.018;2023-07-16T05:42:08;99950.00;;;24.48;58.63
79004;BME280;68369;51.050;17.018;2023-07-16T05:44:53;99956.04;;;24.55;58.70
79004;BME280;68369;51.050;17.018;2023-07-16T05:47:38;99958.75;;;24.60;58.27
79004;BME280;68369;51.050;17.018;2023-07-16T05:50:24;99961.65;;;24.63;57.74
79004;BME280;68369;51.050;17.018;2023-07-16T05:53:10;99957.43;;;24.67;57.33
79004;BME280;68369;51.050;17.018;2023-07-16T05:55:56;99958.02;;;24.74;57.22
79004;BME280;68369;51.050;17.018;2023-07-16T05:58:41;99958.00;;;24.83;56.77
79004;BME280;68369;51.050;17.018;2023-07-16T06:01:26;99964.59;;;25.00;56.64
79004;BME280;68369;51.050;17.018;2023-07-16T06:04:12;99968.67;;;25.14;56.45
79004;BME280;68369;51.050;17.018;2023-07-16T06:06:57;99978.10;;;25.26;56.24
79004;BME280;68369;51.050;17.018;2023-07-16T06:12:35;99990.60;;;25.41;55.46
79004;BME280;68369;51.050;17.018;2023-07-16T06:15:21;99992.37;;;25.41;54.89
79004;BME280;68369;51.050;17.018;2023-07-16T06:18:06;100002.11;;;25.46;55.12
79004;BME280;68369;51.050;17.018;2023-07-16T06:20:52;100013.00;;;25.57;55.29
79004;BME280;68369;51.050;17.018;2023-07-16T06:26:32;100014.00;;;25.66;54.89
79004;BME280;68369;51.050;17.018;2023-07-16T06:29:19;100018.36;;;25.69;54.40
79004;BME280;68369;51.050;17.018;2023-07-16T06:35:14;100027.20;;;25.75;54.77
79004;BME280;68369;51.050;17.018;2023-07-16T06:37:59;100027.36;;;25.77;54.36
79004;BME280;68369;51.050;17.018;2023-07-16T06:52:59;100048.91;;;26.19;53.71
79004;BME280;68369;51.050;17.018;2023-07-16T07:07:54;100069.65;;;26.22;51.58
79004;BME280;68369;51.050;17.018;2023-07-16T07:10:40;100062.73;;;26.23;51.59
79004;BME280;68369;51.050;17.018;2023-07-16T07:13:25;100058.83;;;26.37;51.55
79004;BME280;68369;51.050;17.018;2023-07-16T07:21:57;100059.39;;;26.78;50.88
79004;BME280;68369;51.050;17.018;2023-07-16T07:24:42;100060.05;;;26.76;50.79
79004;BME280;68369;51.050;17.018;2023-07-16T07:33:35;100063.87;;;26.78;51.09
79004;BME280;68369;51.050;17.018;2023-07-16T07:39:10;100068.03;;;27.58;49.18
79004;BME280;68369;51.050;17.018;2023-07-16T07:44:48;100056.67;;;27.39;49.39
79004;BME280;68369;51.050;17.018;2023-07-16T08:02:46;100047.41;;;29.73;44.19
79004;BME280;68369;51.050;17.018;2023-07-16T08:05:32;100037.59;;;29.59;44.79
79004;BME280;68369;51.050;17.018;2023-07-16T08:08:19;100033.71;;;29.57;44.53
79004;BME280;68369;51.050;17.018;2023-07-16T08:17:58;100017.94;;;29.62;44.60
79004;BME280;68369;51.050;17.018;2023-07-16T08:20:46;100024.98;;;29.77;44.39
79004;BME280;68369;51.050;17.018;2023-07-16T08:23:31;100025.53;;;29.77;43.92
79004;BME280;68369;51.050;17.018;2023-07-16T08:35:39;100018.89;;;29.99;43.56
79004;BME280;68369;51.050;17.018;2023-07-16T08:44:40;100004.67;;;30.72;40.24
79004;BME280;68369;51.050;17.018;2023-07-16T09:28:24;99994.39;;;27.70;57.74
79004;BME280;68369;51.050;17.018;2023-07-16T09:31:12;99993.41;;;27.55;58.79
79004;BME280;68369;51.050;17.018;2023-07-16T09:33:58;100002.33;;;27.50;59.27
79004;BME280;68369;51.050;17.018;2023-07-16T09:36:47;100006.48;;;27.50;58.59
79004;BME280;68369;51.050;17.018;2023-07-16T09:42:45;100020.83;;;27.80;58.92
79004;BME280;68369;51.050;17.018;2023-07-16T09:45:32;100027.47;;;28.18;55.93
79004;BME280;68369;51.050;17.018;2023-07-16T09:48:19;100031.48;;;28.26;55.58
79004;BME280;68369;51.050;17.018;2023-07-16T09:51:08;100034.66;;;28.33;53.99
79004;BME280;68369;51.050;17.018;2023-07-16T09:54:01;100035.05;;;28.38;53.59
79004;BME280;68369;51.050;17.018;2023-07-16T09:56:50;100043.05;;;28.39;53.00
79004;BME280;68369;51.050;17.018;2023-07-16T09:59:39;100053.97;;;28.38;53.08
79004;BME280;68369;51.050;17.018;2023-07-16T10:02:25;100066.88;;;28.34;54.04
79004;BME280;68369;51.050;17.018;2023-07-16T10:05:14;100065.21;;;28.26;53.57
79004;BME280;68369;51.050;17.018;2023-07-16T10:08:00;100072.66;;;28.15;53.72
79004;BME280;68369;51.050;17.018;2023-07-16T10:10:52;100073.97;;;28.03;52.78
79004;BME280;68369;51.050;17.018;2023-07-16T10:13:50;100073.62;;;27.91;52.32
79004;BME280;68369;51.050;17.018;2023-07-16T10:16:39;100067.97;;;27.71;52.04
79004;BME280;68369;51.050;17.018;2023-07-16T10:19:26;100077.48;;;27.62;51.91
79004;BME280;68369;51.050;17.018;2023-07-16T10:22:12;100079.89;;;27.50;52.09
79004;BME280;68369;51.050;17.018;2023-07-16T10:24:58;100083.42;;;27.41;53.73
79004;BME280;68369;51.050;17.018;2023-07-16T10:27:53;100088.05;;;27.30;56.26
79004;BME280;68369;51.050;17.018;2023-07-16T10:30:39;100091.48;;;27.21;58.15
79004;BME280;68369;51.050;17.018;2023-07-16T10:33:25;100090.71;;;27.15;59.03
79004;BME280;68369;51.050;17.018;2023-07-16T10:36:18;100096.24;;;27.09;58.99
79004;BME280;68369;51.050;17.018;2023-07-16T10:39:08;100100.22;;;27.04;59.69
79004;BME280;68369;51.050;17.018;2023-07-16T10:41:53;100096.31;;;26.98;60.30
79004;BME280;68369;51.050;17.018;2023-07-16T10:44:39;100106.48;;;26.90;60.71
79004;BME280;68369;51.050;17.018;2023-07-16T10:50:16;100122.78;;;26.70;59.25
79004;BME280;68369;51.050;17.018;2023-07-16T10:53:03;100122.01;;;26.58;58.53
79004;BME280;68369;51.050;17.018;2023-07-16T10:55:49;100118.89;;;26.44;57.90
79004;BME280;68369;51.050;17.018;2023-07-16T10:58:37;100120.69;;;26.26;57.48
79004;BME280;68369;51.050;17.018;2023-07-16T11:01:29;100122.50;;;26.10;57.08
79004;BME280;68369;51.050;17.018;2023-07-16T11:04:19;100118.58;;;25.97;57.15
79004;BME280;68369;51.050;17.018;2023-07-16T11:07:09;100119.10;;;25.84;57.63
79004;BME280;68369;51.050;17.018;2023-07-16T11:09:59;100118.92;;;25.71;57.36
79004;BME280;68369;51.050;17.018;2023-07-16T11:12:52;100125.61;;;25.60;57.79
79004;BME280;68369;51.050;17.018;2023-07-16T11:15:40;100127.85;;;25.53;58.10
79004;BME280;68369;51.050;17.018;2023-07-16T11:18:25;100127.92;;;25.48;57.80
79004;BME280;68369;51.050;17.018;2023-07-16T11:21:11;100125.19;;;25.45;58.32
79004;BME280;68369;51.050;17.018;2023-07-16T11:24:10;100121.73;;;25.42;58.58
79004;BME280;68369;51.050;17.018;2023-07-16T11:30:27;100129.86;;;25.42;59.36
79004;BME280;68369;51.050;17.018;2023-07-16T11:33:14;100129.70;;;25.48;58.77
79004;BME280;68369;51.050;17.018;2023-07-16T11:36:02;100135.20;;;25.55;58.25
79004;BME280;68369;51.050;17.018;2023-07-16T11:38:49;100134.95;;;25.62;57.63
79004;BME280;68369;51.050;17.018;2023-07-16T11:41:35;100127.77;;;25.64;57.99
79004;BME280;68369;51.050;17.018;2023-07-16T11:44:21;100131.97;;;25.68;57.80
79004;BME280;68369;51.050;17.018;2023-07-16T11:47:07;100134.63;;;25.67;57.47
79004;BME280;68369;51.050;17.018;2023-07-16T11:49:53;100136.11;;;25.64;57.47
79004;BME280;68369;51.050;17.018;2023-07-16T11:52:40;100141.95;;;25.63;57.99
79004;BME280;68369;51.050;17.018;2023-07-16T11:55:26;100147.50;;;25.63;57.37
79004;BME280;68369;51.050;17.018;2023-07-16T11:58:13;100145.69;;;25.64;56.85
79004;BME280;68369;51.050;17.018;2023-07-16T12:00:59;100144.67;;;25.63;56.75
79004;BME280;68369;51.050;17.018;2023-07-16T12:03:45;100142.79;;;25.66;55.97
79004;BME280;68369;51.050;17.018;2023-07-16T12:06:31;100144.23;;;25.69;56.03
79004;BME280;68369;51.050;17.018;2023-07-16T12:09:16;100139.60;;;25.75;55.90
79004;BME280;68369;51.050;17.018;2023-07-16T12:12:02;100132.60;;;25.78;56.02
79004;BME280;68369;51.050;17.018;2023-07-16T12:14:51;100135.60;;;25.82;56.11
79004;BME280;68369;51.050;17.018;2023-07-16T12:17:37;100133.48;;;25.87;56.89
79004;BME280;68369;51.050;17.018;2023-07-16T12:20:22;100130.12;;;25.93;57.55
79004;BME280;68369;51.050;17.018;2023-07-16T12:23:08;100130.08;;;26.02;57.19
79004;BME280;68369;51.050;17.018;2023-07-16T12:25:56;100130.88;;;26.12;56.93
79004;BME280;68369;51.050;17.018;2023-07-16T12:28:41;100135.17;;;26.20;55.96
79004;BME280;68369;51.050;17.018;2023-07-16T12:31:27;100135.55;;;26.28;55.45
79004;BME280;68369;51.050;17.018;2023-07-16T12:40:44;100126.02;;;26.46;56.11
79004;BME280;68369;51.050;17.018;2023-07-16T12:46:12;100128.35;;;26.55;55.82
79004;BME280;68369;51.050;17.018;2023-07-16T12:49:00;100121.27;;;26.58;54.69
79004;BME280;68369;51.050;17.018;2023-07-16T12:54:53;100119.52;;;26.69;54.73
79004;BME280;68369;51.050;17.018;2023-07-16T12:57:42;100119.24;;;26.75;54.47
79004;BME280;68369;51.050;17.018;2023-07-16T13:00:30;100114.30;;;26.82;54.03
79004;BME280;68369;51.050;17.018;2023-07-16T13:09:01;100119.34;;;26.91;53.89
79004;BME280;68369;51.050;17.018;2023-07-16T13:11:52;100121.86;;;26.88;53.89
79004;BME280;68369;51.050;17.018;2023-07-16T13:24:01;100142.03;;;26.89;53.47
79004;BME280;68369;51.050;17.018;2023-07-16T13:33:06;100141.55;;;27.00;53.10
79004;BME280;68369;51.050;17.018;2023-07-16T13:35:51;100143.70;;;27.06;53.18
79004;BME280;68369;51.050;17.018;2023-07-16T13:48:23;100153.98;;;27.32;52.86
79004;BME280;68369;51.050;17.018;2023-07-16T13:51:09;100150.09;;;27.38;52.73
79004;BME280;68369;51.050;17.018;2023-07-16T14:06:43;100144.83;;;27.75;51.64
79004;BME280;68369;51.050;17.018;2023-07-16T14:13:02;100146.70;;;27.66;52.34
79004;BME280;68369;51.050;17.018;2023-07-16T14:15:49;100148.52;;;27.61;52.25
79004;BME280;68369;51.050;17.018;2023-07-16T14:24:51;100140.92;;;27.43;53.49
79004;BME280;68369;51.050;17.018;2023-07-16T14:30:48;100141.90;;;27.26;53.61
79004;BME280;68369;51.050;17.018;2023-07-16T14:33:33;100149.35;;;27.20;54.47
79004;BME280;68369;51.050;17.018;2023-07-16T14:36:18;100147.31;;;27.10;54.52
79004;BME280;68369;51.050;17.018;2023-07-16T14:39:04;100144.77;;;27.03;54.33
79004;BME280;68369;51.050;17.018;2023-07-16T14:41:49;100143.05;;;26.94;54.40
79004;BME280;68369;51.050;17.018;2023-07-16T14:47:51;100130.60;;;26.76;54.82
79004;BME280;68369;51.050;17.018;2023-07-16T14:50:40;100127.50;;;26.68;54.92
79004;BME280;68369;51.050;17.018;2023-07-16T14:53:26;100127.88;;;26.63;55.05
79004;BME280;68369;51.050;17.018;2023-07-16T14:59:16;100125.60;;;26.52;56.18
79004;BME280;68369;51.050;17.018;2023-07-16T15:08:24;100114.01;;;26.44;57.80
79004;BME280;68369;51.050;17.018;2023-07-16T15:17:43;100104.57;;;26.23;59.39
79004;BME280;68369;51.050;17.018;2023-07-16T15:26:31;100110.68;;;26.17;59.77
79004;BME280;68369;51.050;17.018;2023-07-16T15:29:17;100108.10;;;26.16;59.50
79004;BME280;68369;51.050;17.018;2023-07-16T15:52:07;100095.88;;;29.57;51.89
79004;BME280;68369;51.050;17.018;2023-07-16T15:54:52;100093.27;;;30.01;50.53
79004;BME280;68369;51.050;17.018;2023-07-16T16:16:27;100097.05;;;28.26;49.77
79004;BME280;68369;51.050;17.018;2023-07-16T16:19:12;100093.44;;;28.13;50.21
79004;BME280;68369;51.050;17.018;2023-07-16T16:28:08;100094.96;;;28.09;50.18
79004;BME280;68369;51.050;17.018;2023-07-16T16:33:36;100089.75;;;28.36;49.44
79004;BME280;68369;51.050;17.018;2023-07-16T16:36:23;100092.71;;;28.53;48.97
79004;BME280;68369;51.050;17.018;2023-07-16T16:39:08;100091.23;;;28.51;48.74
79004;BME280;68369;51.050;17.018;2023-07-16T16:48:42;100095.73;;;28.99;46.77
79004;BME280;68369;51.050;17.018;2023-07-16T16:51:31;100100.02;;;28.76;46.39
79004;BME280;68369;51.050;17.018;2023-07-16T16:54:36;100094.80;;;28.50;47.05
79004;BME280;68369;51.050;17.018;2023-07-16T16:57:23;100107.44;;;28.34;47.47
79004;BME280;68369;51.050;17.018;2023-07-16T17:03:03;100108.64;;;28.01;47.77
79004;BME280;68369;51.050;17.018;2023-07-16T17:05:53;100108.15;;;27.85;47.62
79004;BME280;68369;51.050;17.018;2023-07-16T17:12:04;100112.05;;;27.52;48.28
79004;BME280;68369;51.050;17.018;2023-07-16T17:14:50;100109.79;;;27.42;48.20
79004;BME280;68369;51.050;17.018;2023-07-16T17:17:36;100104.90;;;27.31;48.39
79004;BME280;68369;51.050;17.018;2023-07-16T17:29:49;100120.21;;;26.98;49.78
79004;BME280;68369;51.050;17.018;2023-07-16T17:35:42;100125.09;;;26.80;49.38
79004;BME280;68369;51.050;17.018;2023-07-16T17:38:28;100125.56;;;26.73;49.33
79004;BME280;68369;51.050;17.018;2023-07-16T17:47:23;100133.63;;;26.57;50.53
79004;BME280;68369;51.050;17.018;2023-07-16T17:50:13;100136.95;;;26.49;49.75
79004;BME280;68369;51.050;17.018;2023-07-16T17:55:52;100136.02;;;26.36;49.45
79004;BME280;68369;51.050;17.018;2023-07-16T18:01:27;100137.92;;;26.23;49.51
79004;BME280;68369;51.050;17.018;2023-07-16T18:04:18;100145.36;;;26.18;49.12
79004;BME280;68369;51.050;17.018;2023-07-16T18:10:05;100134.05;;;26.03;50.73
79004;BME280;68369;51.050;17.018;2023-07-16T18:12:52;100135.98;;;25.95;50.66
79004;BME280;68369;51.050;17.018;2023-07-16T18:28:46;100143.03;;;25.37;53.77
79004;BME280;68369;51.050;17.018;2023-07-16T18:31:32;100140.17;;;25.25;54.06
79004;BME280;68369;51.050;17.018;2023-07-16T18:34:18;100140.17;;;25.13;54.05
79004;BME280;68369;51.050;17.018;2023-07-16T18:37:03;100138.49;;;25.00;54.37
79004;BME280;68369;51.050;17.018;2023-07-16T18:39:52;100141.07;;;24.89;54.72
79004;BME280;68369;51.050;17.018;2023-07-16T18:42:40;100141.13;;;24.79;55.33
79004;BME280;68369;51.050;17.018;2023-07-16T18:45:26;100142.55;;;24.67;55.65
79004;BME280;68369;51.050;17.018;2023-07-16T18:48:11;100142.61;;;24.56;55.96
79004;BME280;68369;51.050;17.018;2023-07-16T18:50:59;100145.02;;;24.46;56.63
79004;BME280;68369;51.050;17.018;2023-07-16T18:53:45;100150.80;;;24.39;56.70
79004;BME280;68369;51.050;17.018;2023-07-16T18:56:30;100154.51;;;24.34;56.54
79004;BME280;68369;51.050;17.018;2023-07-16T18:59:15;100160.31;;;24.28;56.37
79004;BME280;68369;51.050;17.018;2023-07-16T19:02:01;100166.79;;;24.19;56.68
79004;BME280;68369;51.050;17.018;2023-07-16T19:04:46;100166.18;;;24.09;57.29
79004;BME280;68369;51.050;17.018;2023-07-16T19:07:32;100166.55;;;24.00;58.01
79004;BME280;68369;51.050;17.018;2023-07-16T19:10:17;100165.23;;;23.92;58.43
79004;BME280;68369;51.050;17.018;2023-07-16T19:13:04;100164.75;;;23.82;58.95
79004;BME280;68369;51.050;17.018;2023-07-16T19:15:50;100167.04;;;23.76;58.85
79004;BME280;68369;51.050;17.018;2023-07-16T19:22:00;100169.38;;;23.56;59.10
79004;BME280;68369;51.050;17.018;2023-07-16T19:24:45;100171.45;;;23.49;58.93
79004;BME280;68369;51.050;17.018;2023-07-16T19:27:31;100168.23;;;23.43;59.25
79004;BME280;68369;51.050;17.018;2023-07-16T19:30:17;100171.67;;;23.38;58.99
79004;BME280;68369;51.050;17.018;2023-07-16T19:33:02;100179.20;;;23.30;58.68
79004;BME280;68369;51.050;17.018;2023-07-16T19:35:48;100185.20;;;23.22;58.92
79004;BME280;68369;51.050;17.018;2023-07-16T19:38:34;100186.83;;;23.12;59.36
79004;BME280;68369;51.050;17.018;2023-07-16T19:41:20;100189.71;;;23.03;59.59
79004;BME280;68369;51.050;17.018;2023-07-16T19:44:05;100186.63;;;22.94;59.87
79004;BME280;68369;51.050;17.018;2023-07-16T19:46:51;100187.56;;;22.84;60.18
79004;BME280;68369;51.050;17.018;2023-07-16T19:49:36;100178.80;;;22.73;60.48
79004;BME280;68369;51.050;17.018;2023-07-16T19:52:21;100177.43;;;22.67;61.00
79004;BME280;68369;51.050;17.018;2023-07-16T19:55:07;100175.90;;;22.62;61.06
79004;BME280;68369;51.050;17.018;2023-07-16T19:57:53;100179.05;;;22.57;61.32
79004;BME280;68369;51.050;17.018;2023-07-16T20:03:49;100176.80;;;22.41;61.68
79004;BME280;68369;51.050;17.018;2023-07-16T20:06:35;100182.52;;;22.34;61.85
79004;BME280;68369;51.050;17.018;2023-07-16T20:09:28;100184.02;;;22.28;62.18
79004;BME280;68369;51.050;17.018;2023-07-16T20:12:13;100179.95;;;22.21;62.33
79004;BME280;68369;51.050;17.018;2023-07-16T20:15:01;100183.08;;;22.18;62.51
79004;BME280;68369;51.050;17.018;2023-07-16T20:17:53;100189.02;;;22.15;62.67
79004;BME280;68369;51.050;17.018;2023-07-16T20:20:41;100178.52;;;22.07;62.73
79004;BME280;68369;51.050;17.018;2023-07-16T20:23:28;100183.28;;;22.06;62.62
79004;BME280;68369;51.050;17.018;2023-07-16T20:26:14;100180.92;;;22.03;63.00
79004;BME280;68369;51.050;17.018;2023-07-16T20:29:00;100189.34;;;21.98;62.84
79004;BME280;68369;51.050;17.018;2023-07-16T20:31:45;100192.80;;;21.94;62.98
79004;BME280;68369;51.050;17.018;2023-07-16T20:34:30;100192.02;;;21.89;62.93
79004;BME280;68369;51.050;17.018;2023-07-16T20:37:15;100186.88;;;21.87;62.65
79004;BME280;68369;51.050;17.018;2023-07-16T20:40:00;100182.45;;;21.86;62.99
79004;BME280;68369;51.050;17.018;2023-07-16T20:45:37;100193.62;;;21.81;62.56
79004;BME280;68369;51.050;17.018;2023-07-16T20:48:30;100199.47;;;21.75;62.85
79004;BME280;68369;51.050;17.018;2023-07-16T20:51:15;100204.16;;;21.69;63.05
79004;BME280;68369;51.050;17.018;2023-07-16T20:54:01;100204.10;;;21.64;63.19
79004;BME280;68369;51.050;17.018;2023-07-16T21:03:29;100202.96;;;21.49;63.32
79004;BME280;68369;51.050;17.018;2023-07-16T21:06:19;100201.28;;;21.43;63.30
79004;BME280;68369;51.050;17.018;2023-07-16T21:09:07;100205.33;;;21.40;63.31
79004;BME280;68369;51.050;17.018;2023-07-16T21:11:53;100200.30;;;21.35;63.34
79004;BME280;68369;51.050;17.018;2023-07-16T21:14:38;100199.67;;;21.29;63.28
79004;BME280;68369;51.050;17.018;2023-07-16T21:17:23;100202.91;;;21.23;63.29
79004;BME280;68369;51.050;17.018;2023-07-16T21:20:09;100209.37;;;21.18;63.61
79004;BME280;68369;51.050;17.018;2023-07-16T21:22:55;100205.24;;;21.15;63.42
79004;BME280;68369;51.050;17.018;2023-07-16T21:28:59;100206.65;;;21.13;63.56
79004;BME280;68369;51.050;17.018;2023-07-16T21:31:46;100201.08;;;21.07;63.61
79004;BME280;68369;51.050;17.018;2023-07-16T21:34:33;100205.95;;;21.06;63.75
79004;BME280;68369;51.050;17.018;2023-07-16T21:37:18;100207.05;;;21.02;63.61
79004;BME280;68369;51.050;17.018;2023-07-16T21:40:04;100214.52;;;20.98;63.69
79004;BME280;68369;51.050;17.018;2023-07-16T21:42:50;100214.91;;;20.94;63.91
79004;BME280;68369;51.050;17.018;2023-07-16T21:45:37;100209.94;;;20.94;64.34
79004;BME280;68369;51.050;17.018;2023-07-16T21:48:22;100202.39;;;20.97;64.27
79004;BME280;68369;51.050;17.018;2023-07-16T21:51:07;100204.58;;;21.00;64.33
79004;BME280;68369;51.050;17.018;2023-07-16T21:53:54;100190.54;;;21.02;64.73
79004;BME280;68369;51.050;17.018;2023-07-16T21:56:39;100190.63;;;21.01;65.08
79004;BME280;68369;51.050;17.018;2023-07-16T21:59:24;100184.77;;;20.98;64.61
79004;BME280;68369;51.050;17.018;2023-07-16T22:02:09;100180.06;;;20.95;64.26
79004;BME280;68369;51.050;17.018;2023-07-16T22:04:55;100182.43;;;20.91;64.05
79004;BME280;68369;51.050;17.018;2023-07-16T22:07:40;100185.70;;;20.86;64.36
79004;BME280;68369;51.050;17.018;2023-07-16T22:10:35;100197.92;;;20.82;64.68
79004;BME280;68369;51.050;17.018;2023-07-16T22:13:22;100200.23;;;20.80;65.14
79004;BME280;68369;51.050;17.018;2023-07-16T22:16:07;100212.73;;;20.82;65.07
79004;BME280;68369;51.050;17.018;2023-07-16T22:18:53;100215.86;;;20.81;65.29
79004;BME280;68369;51.050;17.018;2023-07-16T22:21:38;100213.17;;;20.79;65.13
79004;BME280;68369;51.050;17.018;2023-07-16T22:30:25;100221.21;;;20.70;65.31
79004;BME280;68369;51.050;17.018;2023-07-16T22:33:11;100228.19;;;20.70;65.15
79004;BME280;68369;51.050;17.018;2023-07-16T22:35:55;100233.31;;;20.73;65.09
79004;BME280;68369;51.050;17.018;2023-07-16T22:38:41;100227.64;;;20.72;65.01
79004;BME280;68369;51.050;17.018;2023-07-16T22:41:26;100230.48;;;20.74;64.77
79004;BME280;68369;51.050;17.018;2023-07-16T22:44:11;100230.67;;;20.74;64.42
79004;BME280;68369;51.050;17.018;2023-07-16T22:46:56;100226.14;;;20.73;64.33
79004;BME280;68369;51.050;17.018;2023-07-16T22:49:41;100229.58;;;20.71;64.37
79004;BME280;68369;51.050;17.018;2023-07-16T22:52:22;100231.14;;;20.69;64.50
79004;BME280;68369;51.050;17.018;2023-07-16T22:55:08;100227.67;;;20.70;64.83
79004;BME280;68369;51.050;17.018;2023-07-16T23:01:07;100226.73;;;20.72;64.64
79004;BME280;68369;51.050;17.018;2023-07-16T23:03:54;100226.70;;;20.71;64.84
79004;BME280;68369;51.050;17.018;2023-07-16T23:06:41;100227.94;;;20.69;64.98
79004;BME280;68369;51.050;17.018;2023-07-16T23:09:28;100223.81;;;20.65;64.95
79004;BME280;68369;51.050;17.018;2023-07-16T23:12:14;100216.70;;;20.63;65.17